Zandhoven, Belgium
Current Conditions -  °F | °C
As of 11:20 PM on Thursday 23 Oct 2014 (Local Time) from EBAW Reporting Station
Overcast Overcast  
Wind Chill: 55°   Ceiling: 4300
Heat Index: 55°   Visibility: 6mi
Dew Point: 45°   Wind: 9mph
Humidity: 67%   Direction: 200°SSW
Pressure: 30.18"   Gusts: NA
Location:  51.21°N, 4.66°E
Report Text: EBAW 232120Z AUTO 20008KT 9999 OVC043/// 13/07 Q1022
Loading
Personal Weather Stations






























Interactive Weather Map New forecast layout! Learn more

10-Day Weather Forecast

Advertisements
Track Severe Weather on mobile